Current Weather

Nairobi Jkia

Nairobi Jkia, Kenya (HKJK)

Report from: Tuesday, February 27, 2024 12:30 PM EAT
Current time: Tuesday, February 27, 2024 1:08 PM EAT

Nearby weather – Weather history – Daily summaries
Weather forecast

Temperature28.0°C (82.4°F)
Heat index28.3°C (83.0°F)
Dew point15.0°C (59.0°F)
Winds 6 kts (3.1 m/s, 6.9 mph) East (80°)
Visibility6.2 mi. (10 km)
Clouds Ceiling: Broken clouds 3,000 ft. (914 m)
Altimeter30.12 in.Hg (1020 mB)
Relative humidity45 %
Density altitude1,507 ft. (459 m)
Remarks No significant changes expected in the next two hours
Flight conditions Visual Meteorological Conditions
Raw dataHKJK 270930Z 08006KT 9999 BKN030 28/15 Q1020 NOSIG
An error has occurred. This application may no longer respond until reloaded. Reload 🗙